Michigan City, Indiana
Current Conditions -  °F | °C
As of 12:15 AM on Tuesday 21 Oct 2014 (Local Time) from KMGC Reporting Station
Overcast Overcast  
Wind Chill: 52°   Ceiling: 2900
Heat Index: 52°   Visibility: 10mi
Dew Point: 41°   Wind: 12mph
Humidity: 67%   Direction: 360°N
Pressure: 29.98"   Gusts: NA
Location:  41.72°N, 86.9°W
Report Text: KMGC 210515Z AUTO 36010KT 10SM SCT023 BKN029 OVC035 11/05 A2998 RMK AO2
Loading
Personal Weather Stations






























Interactive Weather Map New forecast layout! Learn more

10-Day Weather Forecast

Advertisements
Track Severe Weather on mobile